createdAt,value
2019-02-19T00:01:10.392Z,7.05
2019-02-19T00:03:37.264Z,7.08
2019-02-19T00:06:04.123Z,7.15
2019-02-19T00:08:30.964Z,7.19
2019-02-19T00:10:57.846Z,7.14
2019-02-19T00:13:24.809Z,7.20
2019-02-19T00:15:51.684Z,7.23
2019-02-19T00:18:18.667Z,7.25
2019-02-19T00:20:45.605Z,7.25
2019-02-19T00:23:12.360Z,7.21
2019-02-19T00:25:39.116Z,7.33
2019-02-19T00:28:06.116Z,7.36
2019-02-19T00:30:33.020Z,7.25
2019-02-19T00:33:00.135Z,7.11
2019-02-19T00:35:27.082Z,7.13
2019-02-19T00:37:54.265Z,7.05
2019-02-19T00:40:21.279Z,7.11
2019-02-19T00:42:48.244Z,7.09
2019-02-19T00:45:16.950Z,7.23
2019-02-19T00:47:44.045Z,7.35
2019-02-19T00:50:10.788Z,7.31
2019-02-19T00:52:37.655Z,7.36
2019-02-19T00:55:04.620Z,7.24
2019-02-19T00:57:31.618Z,7.36
2019-02-19T00:59:58.504Z,7.49
2019-02-19T01:02:25.410Z,7.43
2019-02-19T01:04:52.403Z,7.41
2019-02-19T01:07:19.254Z,7.49
2019-02-19T01:09:46.301Z,7.44
2019-02-19T01:12:13.165Z,7.44
2019-02-19T01:14:40.141Z,7.46
2019-02-19T01:17:07.125Z,7.55
2019-02-19T01:19:34.000Z,7.46
2019-02-19T01:22:00.868Z,7.54
2019-02-19T01:24:27.760Z,7.56
2019-02-19T01:26:54.625Z,7.52
2019-02-19T01:29:21.381Z,7.49
2019-02-19T01:31:48.187Z,7.49
2019-02-19T01:34:15.174Z,7.43
2019-02-19T01:36:42.148Z,7.50
2019-02-19T01:39:09.032Z,7.49
2019-02-19T01:41:36.218Z,7.46
2019-02-19T01:44:03.186Z,7.48
2019-02-19T01:46:30.210Z,7.60
2019-02-19T01:48:57.105Z,7.47
2019-02-19T01:51:23.996Z,7.56
2019-02-19T01:53:50.865Z,7.57
2019-02-19T01:56:17.727Z,7.51
2019-02-19T01:58:44.736Z,7.36
2019-02-19T02:01:11.496Z,7.27
2019-02-19T02:03:38.261Z,7.04
2019-02-19T02:06:05.133Z,7.07
2019-02-19T02:08:31.912Z,7.15
2019-02-19T02:10:58.748Z,7.15
2019-02-19T02:13:25.708Z,7.33
2019-02-19T02:15:52.676Z,7.16
2019-02-19T02:18:19.637Z,7.14
2019-02-19T02:20:46.490Z,7.25
2019-02-19T02:23:13.354Z,7.24
2019-02-19T02:25:40.205Z,7.33
2019-02-19T02:28:07.062Z,7.32
2019-02-19T02:30:33.958Z,7.24
2019-02-19T02:33:00.847Z,7.05
2019-02-19T02:35:27.772Z,7.02
2019-02-19T02:37:54.749Z,7.02
2019-02-19T02:40:21.746Z,7.07
2019-02-19T02:42:48.455Z,7.15
2019-02-19T02:45:15.259Z,7.11
2019-02-19T02:47:42.104Z,7.07
2019-02-19T02:50:09.096Z,6.97
2019-02-19T02:52:36.009Z,7.14
2019-02-19T02:55:03.004Z,7.05
2019-02-19T02:57:30.082Z,7.03
2019-02-19T02:59:56.954Z,6.97
2019-02-19T03:02:23.833Z,6.81
2019-02-19T03:04:50.793Z,6.76
2019-02-19T03:07:31.682Z,6.84
2019-02-19T03:09:58.404Z,6.79
2019-02-19T03:12:25.456Z,6.74
2019-02-19T03:14:52.451Z,6.75
2019-02-19T03:17:19.182Z,6.74
2019-02-19T03:19:45.934Z,6.74
2019-02-19T03:46:31.340Z,6.66
2019-02-19T03:48:58.221Z,6.74
2019-02-19T03:51:25.173Z,6.74
2019-02-19T03:53:51.937Z,6.90
2019-02-19T03:56:18.902Z,6.93
2019-02-19T03:58:45.876Z,6.94
2019-02-19T04:01:12.637Z,6.98
2019-02-19T04:03:39.416Z,7.15
2019-02-19T04:06:06.228Z,7.15
2019-02-19T04:08:33.000Z,7.20
2019-02-19T04:10:59.969Z,7.34
2019-02-19T04:13:26.719Z,7.35
2019-02-19T04:15:53.698Z,7.43
2019-02-19T04:18:20.411Z,7.43
2019-02-19T04:20:47.214Z,7.53
2019-02-19T04:23:14.185Z,7.45
2019-02-19T04:25:40.936Z,7.34
2019-02-19T04:28:07.812Z,7.27
2019-02-19T04:30:34.701Z,7.26
2019-02-19T04:33:01.615Z,7.35
2019-02-19T04:35:28.646Z,7.32
2019-02-19T04:37:55.429Z,7.49
2019-02-19T04:40:22.269Z,7.62
2019-02-19T04:42:49.010Z,7.83
2019-02-19T04:45:16.102Z,8.05
2019-02-19T04:47:42.840Z,8.08
2019-02-19T04:50:09.752Z,8.19
2019-02-19T04:52:36.585Z,8.26
2019-02-19T04:55:03.587Z,8.39
2019-02-19T04:57:30.579Z,8.48
2019-02-19T04:59:57.335Z,8.56
2019-02-19T05:02:24.191Z,8.48
2019-02-19T05:04:51.028Z,8.49
2019-02-19T05:07:17.935Z,8.56
2019-02-19T05:09:44.722Z,8.54
2019-02-19T05:12:11.702Z,8.42
2019-02-19T05:14:38.585Z,8.53
2019-02-19T05:17:19.473Z,8.56
2019-02-19T05:19:48.487Z,8.51
2019-02-19T05:22:15.270Z,8.41
2019-02-19T05:24:42.137Z,8.49
2019-02-19T05:27:09.100Z,8.68
2019-02-19T05:29:35.945Z,8.75
2019-02-19T05:32:03.988Z,8.78
2019-02-19T05:34:30.936Z,8.67
2019-02-19T05:36:58.606Z,8.84
2019-02-19T05:39:25.525Z,9.13
2019-02-19T05:41:52.280Z,9.15
2019-02-19T05:44:19.253Z,9.22
2019-02-19T05:46:49.846Z,9.14
2019-02-19T05:49:14.711Z,9.11
2019-02-19T05:51:41.679Z,9.07
2019-02-19T05:54:08.424Z,9.11
2019-02-19T05:56:35.436Z,8.99
2019-02-19T05:59:02.173Z,9.15
2019-02-19T06:01:28.926Z,9.34
2019-02-19T06:03:55.909Z,9.42
2019-02-19T06:06:22.675Z,9.35
2019-02-19T06:08:49.505Z,9.57
2019-02-19T06:11:16.376Z,9.39
2019-02-19T06:13:43.118Z,9.47
2019-02-19T06:16:09.863Z,9.55
2019-02-19T06:18:36.898Z,9.63
2019-02-19T06:21:03.692Z,9.63
2019-02-19T06:23:30.671Z,9.59
2019-02-19T06:25:57.432Z,9.39
2019-02-19T06:28:24.437Z,9.30
2019-02-19T06:30:51.213Z,9.22
2019-02-19T06:33:18.125Z,9.16
2019-02-19T06:35:45.183Z,9.23
2019-02-19T06:38:11.964Z,9.43
2019-02-19T06:40:45.386Z,9.44
2019-02-19T06:46:20.695Z,9.01
2019-02-19T06:48:47.443Z,9.22
2019-02-19T06:51:14.193Z,9.25
2019-02-19T06:53:41.103Z,9.17
2019-02-19T06:56:07.948Z,8.84
2019-02-19T06:58:34.877Z,8.73
2019-02-19T07:01:01.653Z,8.46
2019-02-19T07:03:42.596Z,8.54
2019-02-19T07:06:09.343Z,8.58
2019-02-19T07:08:37.409Z,8.21
2019-02-19T07:11:04.148Z,8.33
2019-02-19T07:13:31.400Z,8.40
2019-02-19T07:15:58.139Z,8.43
2019-02-19T07:18:24.985Z,8.96
2019-02-19T07:20:51.777Z,9.03
2019-02-19T07:23:18.540Z,9.15
2019-02-19T07:25:45.474Z,9.31
2019-02-19T07:28:12.505Z,9.47
2019-02-19T07:30:39.280Z,9.65
2019-02-19T07:33:07.111Z,9.75
2019-02-19T07:35:34.154Z,9.72
2019-02-19T07:38:01.144Z,9.95
2019-02-19T07:40:27.984Z,10.06
2019-02-19T07:42:54.891Z,9.91
2019-02-19T07:45:21.659Z,10.03
2019-02-19T07:47:48.486Z,10.08
2019-02-19T07:50:16.346Z,10.05
2019-02-19T07:52:43.198Z,9.83
2019-02-19T07:55:09.976Z,9.73
2019-02-19T07:57:38.071Z,9.70
2019-02-19T08:00:05.365Z,9.37
2019-02-19T08:02:32.439Z,9.34
2019-02-19T08:04:59.194Z,9.08
2019-02-19T08:07:27.278Z,9.10
2019-02-19T08:09:54.125Z,9.22
2019-02-19T08:12:20.924Z,9.36
2019-02-19T08:14:47.796Z,9.25
2019-02-19T08:17:14.683Z,9.06
2019-02-19T08:19:41.493Z,9.12
2019-02-19T08:22:08.226Z,9.07
2019-02-19T08:24:34.965Z,9.10
2019-02-19T08:27:01.761Z,9.00
2019-02-19T08:29:28.477Z,8.83
2019-02-19T08:31:55.219Z,8.67
2019-02-19T08:34:22.148Z,8.60
2019-02-19T08:36:49.015Z,8.57
2019-02-19T08:39:15.832Z,8.35
2019-02-19T08:41:42.620Z,8.24
2019-02-19T08:44:09.461Z,8.21
2019-02-19T08:46:36.324Z,8.12
2019-02-19T08:49:03.123Z,8.28
2019-02-19T08:51:30.003Z,8.32
2019-02-19T08:53:56.873Z,8.01
2019-02-19T08:56:23.779Z,7.76
2019-02-19T08:58:50.520Z,7.78
2019-02-19T09:01:17.459Z,7.82
2019-02-19T09:03:44.211Z,7.82
2019-02-19T09:06:11.245Z,7.77
2019-02-19T09:08:39.310Z,7.78
2019-02-19T09:11:06.351Z,7.71
2019-02-19T09:13:33.310Z,7.96
2019-02-19T09:16:00.157Z,7.97
2019-02-19T09:18:27.082Z,8.24
2019-02-19T09:20:54.001Z,8.18
2019-02-19T09:23:20.746Z,8.16
2019-02-19T09:25:47.771Z,8.22
2019-02-19T09:28:14.552Z,8.30
2019-02-19T09:30:41.418Z,8.45
2019-02-19T09:33:08.213Z,8.62
2019-02-19T09:35:34.952Z,8.59
2019-02-19T09:38:01.989Z,8.65
2019-02-19T09:40:28.869Z,8.92
2019-02-19T09:42:55.837Z,9.01
2019-02-19T09:45:22.780Z,9.19
2019-02-19T09:47:49.760Z,9.35
2019-02-19T09:50:16.625Z,9.34
2019-02-19T09:52:43.480Z,9.47
2019-02-19T09:55:10.400Z,9.49
2019-02-19T09:57:37.354Z,9.60
2019-02-19T10:00:06.137Z,9.74
2019-02-19T10:02:34.539Z,9.76
2019-02-19T10:05:01.285Z,9.68
2019-02-19T10:07:28.040Z,9.58
2019-02-19T10:09:54.921Z,9.57
2019-02-19T10:12:21.656Z,9.58
2019-02-19T10:14:48.421Z,9.41
2019-02-19T10:17:15.361Z,9.30
2019-02-19T10:19:42.206Z,9.34
2019-02-19T10:22:08.918Z,9.13
2019-02-19T10:24:35.728Z,8.96
2019-02-19T10:27:02.604Z,8.91
2019-02-19T10:29:29.466Z,8.83
2019-02-19T10:31:56.529Z,8.99
2019-02-19T10:34:23.293Z,9.32
2019-02-19T10:36:50.138Z,9.85
2019-02-19T10:39:16.942Z,10.21
2019-02-19T10:41:43.767Z,10.24
2019-02-19T10:44:10.529Z,10.60
2019-02-19T10:46:37.550Z,10.78
2019-02-19T10:49:04.589Z,10.82
2019-02-19T10:51:31.352Z,10.71
2019-02-19T10:53:58.204Z,10.86
2019-02-19T10:56:25.177Z,10.97
2019-02-19T10:58:52.253Z,10.72
2019-02-19T11:01:19.187Z,10.73
2019-02-19T11:03:45.941Z,11.03
2019-02-19T11:06:12.962Z,11.36
2019-02-19T11:08:39.742Z,11.45
2019-02-19T11:11:06.687Z,11.82
2019-02-19T11:13:33.456Z,12.15
2019-02-19T11:16:00.744Z,12.75
2019-02-19T11:18:34.895Z,12.72
2019-02-19T11:21:01.891Z,13.25
2019-02-19T11:23:28.653Z,13.89
2019-02-19T11:25:55.610Z,13.72
2019-02-19T11:28:22.480Z,13.51
2019-02-19T11:30:49.459Z,13.85
2019-02-19T11:33:16.299Z,13.89
2019-02-19T11:35:43.112Z,13.91
2019-02-19T11:38:09.873Z,13.90
2019-02-19T11:40:36.735Z,13.49
2019-02-19T11:43:03.831Z,13.97
2019-02-19T11:45:30.887Z,13.70
2019-02-19T11:47:57.617Z,13.82
2019-02-19T11:50:24.396Z,13.85
2019-02-19T11:52:51.140Z,13.74
2019-02-19T11:55:17.944Z,13.30
2019-02-19T11:57:45.121Z,13.89
2019-02-19T12:00:15.206Z,14.59
2019-02-19T12:02:42.157Z,15.25
2019-02-19T12:05:09.018Z,16.30
2019-02-19T12:07:35.753Z,19.89
2019-02-19T12:10:02.863Z,21.25
2019-02-19T12:12:29.816Z,21.74
2019-02-19T12:14:56.699Z,20.20
2019-02-19T12:17:23.586Z,20.32
2019-02-19T12:19:50.398Z,19.41
2019-02-19T12:22:17.253Z,20.85
2019-02-19T12:24:47.647Z,23.26
2019-02-19T12:27:14.686Z,25.51
2019-02-19T12:29:41.636Z,23.66
2019-02-19T12:32:08.394Z,24.27
2019-02-19T12:34:35.220Z,26.05
2019-02-19T12:37:04.192Z,25.86
2019-02-19T12:39:31.061Z,25.95
2019-02-19T12:41:57.852Z,27.20
2019-02-19T12:44:24.663Z,26.45
2019-02-19T12:46:51.641Z,25.31
2019-02-19T12:49:18.705Z,23.29
2019-02-19T12:51:46.747Z,25.02
2019-02-19T12:54:13.500Z,23.19
2019-02-19T12:56:40.269Z,25.69
2019-02-19T12:59:07.062Z,25.80
2019-02-19T13:01:34.035Z,26.32
2019-02-19T13:04:01.102Z,26.68
2019-02-19T13:06:27.953Z,26.68
2019-02-19T13:08:54.700Z,26.69
2019-02-19T13:11:21.471Z,22.14
2019-02-19T13:13:48.319Z,18.79
2019-02-19T13:16:15.199Z,17.27
2019-02-19T13:18:42.050Z,17.32
2019-02-19T13:21:09.057Z,20.41
2019-02-19T13:23:35.800Z,21.53
2019-02-19T13:26:02.551Z,21.81
2019-02-19T13:28:32.307Z,20.57
2019-02-19T13:30:59.166Z,19.33
2019-02-19T13:33:26.160Z,21.26
2019-02-19T13:35:52.910Z,20.08
2019-02-19T13:38:19.650Z,20.42
2019-02-19T13:40:46.444Z,21.85
2019-02-19T13:43:22.342Z,21.71
2019-02-19T13:45:50.330Z,20.05
2019-02-19T13:48:17.185Z,19.36
2019-02-19T13:50:44.445Z,20.10
2019-02-19T13:53:22.173Z,20.76
2019-02-19T13:55:51.994Z,23.66
2019-02-19T13:58:20.419Z,25.59
2019-02-19T14:00:49.699Z,26.81
2019-02-19T14:03:17.898Z,25.15
2019-02-19T14:05:44.751Z,23.22
2019-02-19T14:08:14.700Z,19.49
2019-02-19T14:10:40.479Z,16.82
2019-02-19T14:13:20.576Z,14.44
2019-02-19T14:15:57.289Z,14.29
2019-02-19T14:18:43.956Z,15.85
2019-02-19T14:21:30.514Z,16.68
2019-02-19T14:24:31.896Z,18.02
2019-02-19T14:27:17.036Z,19.01
2019-02-19T14:30:02.076Z,20.43
2019-02-19T14:32:54.620Z,18.60
2019-02-19T14:35:56.428Z,17.36
2019-02-19T14:38:47.889Z,17.70
2019-02-19T14:41:33.105Z,14.71
2019-02-19T14:44:34.543Z,14.15
2019-02-19T14:47:29.990Z,17.22
2019-02-19T14:50:22.149Z,20.36
2019-02-19T14:53:08.272Z,17.72
2019-02-19T14:56:02.774Z,19.74
2019-02-19T14:58:49.302Z,19.83
2019-02-19T15:01:32.496Z,19.29
2019-02-19T15:04:17.792Z,17.04
2019-02-19T15:07:04.253Z,17.62
2019-02-19T15:10:09.215Z,20.16
2019-02-19T15:13:10.685Z,21.00
2019-02-19T15:15:50.751Z,20.13
2019-02-19T15:18:35.701Z,21.18
2019-02-19T15:21:19.297Z,22.17
2019-02-19T15:24:04.648Z,21.74
2019-02-19T15:26:54.662Z,23.07
2019-02-19T15:29:47.123Z,20.83
2019-02-19T15:32:38.620Z,19.96
2019-02-19T15:35:33.808Z,19.13
2019-02-19T15:38:22.597Z,17.91
2019-02-19T15:41:36.705Z,18.90
2019-02-19T15:44:33.200Z,17.75
2019-02-19T15:47:25.572Z,15.49
2019-02-19T15:50:10.284Z,15.26
2019-02-19T15:52:56.641Z,15.62
2019-02-19T15:55:44.448Z,16.77
2019-02-19T15:58:29.925Z,17.50
2019-02-19T16:01:17.226Z,16.93
2019-02-19T16:03:58.589Z,17.47
2019-02-19T16:06:51.074Z,17.01
2019-02-19T16:09:40.208Z,16.73
2019-02-19T16:12:21.567Z,16.75
2019-02-19T16:15:02.853Z,16.60
2019-02-19T16:18:01.507Z,16.10
2019-02-19T16:20:54.148Z,15.21
2019-02-19T16:23:37.254Z,15.18
2019-02-19T16:26:30.517Z,14.80
2019-02-19T16:29:17.022Z,14.09
2019-02-19T16:32:08.719Z,13.29
2019-02-19T16:34:54.366Z,12.33
2019-02-19T16:37:34.774Z,11.65
2019-02-19T16:40:35.491Z,11.21
2019-02-19T16:43:12.295Z,10.87
2019-02-19T16:45:50.311Z,10.63
2019-02-19T16:48:34.550Z,10.47
2019-02-19T16:51:30.014Z,10.33
2019-02-19T16:54:17.284Z,10.08
2019-02-19T16:57:07.573Z,10.05
2019-02-19T16:59:50.085Z,10.08
2019-02-19T17:02:24.426Z,9.99
2019-02-19T17:05:29.705Z,9.91
2019-02-19T17:08:19.137Z,9.84
2019-02-19T17:10:58.890Z,9.76
2019-02-19T17:14:06.336Z,9.64
2019-02-19T17:17:01.351Z,9.59
2019-02-19T17:19:41.140Z,9.55
2019-02-19T17:22:30.673Z,9.52
2019-02-19T17:25:33.733Z,9.43
2019-02-19T17:28:18.387Z,9.37
2019-02-19T17:30:56.583Z,9.30
2019-02-19T17:33:35.480Z,9.25
2019-02-19T17:36:28.116Z,9.19
2019-02-19T17:39:20.484Z,8.98
2019-02-19T17:42:10.067Z,8.86
2019-02-19T17:45:02.326Z,8.91
2019-02-19T17:47:38.081Z,8.79
2019-02-19T17:50:37.953Z,8.73
2019-02-19T17:53:24.590Z,8.74
2019-02-19T17:55:58.814Z,8.61
2019-02-19T17:58:29.220Z,8.49
2019-02-19T18:01:28.263Z,8.46
2019-02-19T18:04:12.512Z,8.37
2019-02-19T18:07:05.755Z,8.24
2019-02-19T18:09:51.835Z,7.99
2019-02-19T18:12:26.063Z,7.94
2019-02-19T18:15:11.175Z,7.92
2019-02-19T18:17:58.778Z,7.94
2019-02-19T18:20:25.584Z,7.93
2019-02-19T18:22:52.416Z,7.76
2019-02-19T18:25:19.262Z,7.85
2019-02-19T18:27:46.231Z,7.91
2019-02-19T18:30:14.481Z,7.91
2019-02-19T18:32:41.507Z,8.01
2019-02-19T18:35:08.443Z,8.03
2019-02-19T18:37:35.517Z,7.96
2019-02-19T18:40:02.415Z,7.87
2019-02-19T18:42:31.333Z,7.89
2019-02-19T18:44:58.070Z,7.84
2019-02-19T18:47:24.810Z,7.81
2019-02-19T18:49:51.698Z,7.70
2019-02-19T18:52:18.548Z,7.74
2019-02-19T18:54:45.572Z,7.68
2019-02-19T18:57:12.584Z,7.61
2019-02-19T18:59:39.324Z,7.55
2019-02-19T19:02:06.299Z,7.48
2019-02-19T19:04:33.233Z,7.47
2019-02-19T19:07:00.239Z,7.48
2019-02-19T19:09:26.967Z,7.49
2019-02-19T19:11:53.953Z,7.43
2019-02-19T19:14:21.925Z,7.37
2019-02-19T19:16:48.781Z,7.32
2019-02-19T19:19:15.811Z,7.27
2019-02-19T19:21:42.562Z,7.24
2019-02-19T19:24:09.330Z,7.15
2019-02-19T19:26:36.076Z,7.11
2019-02-19T19:29:02.914Z,6.99
2019-02-19T19:31:33.586Z,6.86
2019-02-19T19:33:59.087Z,6.79
2019-02-19T19:36:25.807Z,6.75
2019-02-19T19:38:52.758Z,6.77
2019-02-19T19:41:19.595Z,6.70
2019-02-19T19:43:46.606Z,6.57
2019-02-19T19:46:13.712Z,6.52
2019-02-19T19:48:40.493Z,6.38
2019-02-19T19:51:07.446Z,6.28
2019-02-19T19:53:34.333Z,6.27
2019-02-19T19:56:01.147Z,6.18
2019-02-19T19:58:27.919Z,6.12
2019-02-19T20:00:54.674Z,6.09
2019-02-19T20:03:21.663Z,6.15
2019-02-19T20:05:49.486Z,6.21
2019-02-19T20:08:16.234Z,6.35
2019-02-19T20:10:44.131Z,6.44
2019-02-19T20:13:10.865Z,6.44
2019-02-19T20:15:37.639Z,6.52
2019-02-19T20:18:04.487Z,6.53
2019-02-19T20:20:31.347Z,6.57
2019-02-19T20:22:58.099Z,6.50
2019-02-19T20:25:27.177Z,6.46
2019-02-19T20:27:54.318Z,6.46
2019-02-19T20:30:21.054Z,6.37
2019-02-19T20:32:47.960Z,6.31
2019-02-19T20:35:15.461Z,6.39
2019-02-19T20:37:42.326Z,6.21
2019-02-19T20:40:09.356Z,6.18
2019-02-19T20:42:36.492Z,6.01
2019-02-19T20:45:03.857Z,5.79
2019-02-19T20:47:32.668Z,5.79
2019-02-19T20:49:59.634Z,5.67
2019-02-19T20:52:26.405Z,5.71
2019-02-19T20:54:53.257Z,5.73
2019-02-19T20:57:20.095Z,5.77
2019-02-19T20:59:47.040Z,5.72
2019-02-19T21:02:14.069Z,5.74
2019-02-19T21:04:41.103Z,5.63
2019-02-19T21:07:08.225Z,5.63
2019-02-19T21:09:43.441Z,5.80
2019-02-19T21:12:04.358Z,5.82
2019-02-19T21:14:32.519Z,5.74
2019-02-19T21:16:59.390Z,5.72
2019-02-19T21:19:26.371Z,5.75
2019-02-19T21:21:53.222Z,5.72
2019-02-19T21:24:21.604Z,5.85
2019-02-19T21:26:48.753Z,5.91
2019-02-19T21:29:15.941Z,5.93
2019-02-19T21:31:42.931Z,5.87
2019-02-19T21:34:11.119Z,5.92
2019-02-19T21:36:38.187Z,5.82
2019-02-19T21:39:05.319Z,5.69
2019-02-19T21:41:34.188Z,5.52
2019-02-19T21:44:01.209Z,5.45
2019-02-19T21:46:28.173Z,5.41
2019-02-19T21:48:55.032Z,5.40
2019-02-19T21:51:22.677Z,5.37
2019-02-19T21:53:49.548Z,5.37
2019-02-19T21:56:16.415Z,5.35
2019-02-19T21:58:43.502Z,5.39
2019-02-19T22:01:10.755Z,5.32
2019-02-19T22:03:37.915Z,5.25
2019-02-19T22:06:05.972Z,5.10
2019-02-19T22:08:32.945Z,5.14
2019-02-19T22:10:59.838Z,5.07
2019-02-19T22:13:26.679Z,5.02
2019-02-19T22:15:53.554Z,5.03
2019-02-19T22:18:20.536Z,5.06
2019-02-19T22:20:58.431Z,5.15
2019-02-19T22:23:25.415Z,5.21
2019-02-19T22:25:52.277Z,5.18
2019-02-19T22:28:19.172Z,5.19
2019-02-19T22:30:46.052Z,5.20
2019-02-19T22:33:12.954Z,5.13
2019-02-19T22:35:39.723Z,5.14
2019-02-19T22:38:06.708Z,5.07
2019-02-19T22:40:33.482Z,5.05
2019-02-19T22:43:00.663Z,4.98
2019-02-19T22:45:27.622Z,5.04
2019-02-19T22:47:54.480Z,5.01
2019-02-19T22:50:21.273Z,4.97
2019-02-19T22:52:48.025Z,5.04
2019-02-19T22:55:34.569Z,5.00
2019-02-19T22:58:03.815Z,5.01
2019-02-19T23:00:50.140Z,4.98
2019-02-19T23:03:21.221Z,4.89
2019-02-19T23:05:48.189Z,4.75
2019-02-19T23:08:16.128Z,4.79
2019-02-19T23:10:43.099Z,4.80
2019-02-19T23:13:09.834Z,4.68
2019-02-19T23:15:36.697Z,4.55
2019-02-19T23:18:03.554Z,4.51
2019-02-19T23:20:30.615Z,4.46
2019-02-19T23:22:57.522Z,4.31
2019-02-19T23:25:24.690Z,4.31
2019-02-19T23:27:51.736Z,4.36
2019-02-19T23:30:18.701Z,4.27
2019-02-19T23:32:45.560Z,4.33
2019-02-19T23:35:33.900Z,4.40
2019-02-19T23:38:00.775Z,4.45
2019-02-19T23:40:27.725Z,4.53
2019-02-19T23:42:54.581Z,4.45
2019-02-19T23:45:21.438Z,4.48
2019-02-19T23:47:48.286Z,4.41
2019-02-19T23:50:15.089Z,4.47
2019-02-19T23:52:41.857Z,4.51
2019-02-19T23:55:08.708Z,4.51
2019-02-19T23:57:35.619Z,4.55
